Time;durP1;ratioP1;P1;durP2;ratioP2;P2;SDS_P1;SDS_P2;PMS_P1;PMS_P2;Temp;Humidity;BMP_temperature;BMP_pressure;BME280_temperature;BME280_humidity;BME280_pressure;Samples;Min_cycle;Max_cycle;Signal;HPM_P1;HPM_P2
2021/07/13 00:01:15;;;;;;;6.80;5.45;;;;;;;;;;3583708;40;20029;-67
2021/07/13 00:03:40;;;;;;;11.98;5.60;;;;;;;;;;3581357;40;20048;-67
2021/07/13 00:06:06;;;;;;;12.52;5.88;;;;;;;;;;3585096;40;20033;-68
2021/07/13 00:08:31;;;;;;;7.40;6.50;;;;;;;;;;3582575;40;20044;-67
2021/07/13 00:10:57;;;;;;;8.07;6.88;;;;;;;;;;3583185;40;20091;-67
2021/07/13 00:13:22;;;;;;;7.88;6.15;;;;;;;;;;3583913;40;20040;-67
2021/07/13 00:15:50;;;;;;;7.45;5.88;;;;;;;;;;3582590;40;20102;-67
2021/07/13 00:18:15;;;;;;;5.90;5.30;;;;;;;;;;3586186;40;20048;-68
2021/07/13 00:20:41;;;;;;;6.90;5.72;;;;;;;;;;3584446;40;20285;-68
2021/07/13 00:23:07;;;;;;;6.57;5.85;;;;;;;;;;3585201;40;20050;-68
2021/07/13 00:25:34;;;;;;;6.25;5.65;;;;;;;;;;3584047;40;20032;-67
2021/07/13 00:28:00;;;;;;;6.45;5.78;;;;;;;;;;3582276;40;20052;-67
2021/07/13 00:30:25;;;;;;;6.65;5.88;;;;;;;;;;3584546;40;20049;-67
2021/07/13 00:32:51;;;;;;;13.40;8.27;;;;;;;;;;3584193;40;20441;-67
2021/07/13 00:35:17;;;;;;;7.57;6.82;;;;;;;;;;3584734;40;20032;-67
2021/07/13 00:37:43;;;;;;;6.90;6.00;;;;;;;;;;3583333;40;20032;-66
2021/07/13 00:40:11;;;;;;;6.95;6.25;;;;;;;;;;3584418;40;20052;-66
2021/07/13 00:42:37;;;;;;;9.52;6.72;;;;;;;;;;3582981;40;20410;-66
2021/07/13 00:45:05;;;;;;;8.38;7.57;;;;;;;;;;3583461;40;20051;-66
2021/07/13 00:47:31;;;;;;;8.05;6.82;;;;;;;;;;3582076;40;20036;-66
2021/07/13 00:49:59;;;;;;;8.20;7.38;;;;;;;;;;3582572;40;20036;-66
2021/07/13 00:52:26;;;;;;;8.60;7.88;;;;;;;;;;3582500;40;20033;-66
2021/07/13 00:54:52;;;;;;;8.45;7.68;;;;;;;;;;3584621;40;20528;-66
2021/07/13 00:57:19;;;;;;;7.65;7.00;;;;;;;;;;3583214;40;20025;-66
2021/07/13 00:59:45;;;;;;;9.68;8.77;;;;;;;;;;3581960;40;20352;-66
2021/07/13 01:02:12;;;;;;;9.85;8.90;;;;;;;;;;3583586;40;20047;-66
2021/07/13 01:04:50;;;;;;;9.85;8.73;;;;;;;;;;3584258;40;20043;-65
2021/07/13 01:07:50;;;;;;;10.98;9.65;;;;;;;;;;3583979;40;20057;-65
2021/07/13 01:10:27;;;;;;;11.13;10.00;;;;;;;;;;3551270;40;20067;-65
2021/07/13 01:13:05;;;;;;;9.82;8.82;;;;;;;;;;3584376;40;20036;-65
2021/07/13 01:15:36;;;;;;;11.05;9.95;;;;;;;;;;3583847;40;20032;-64
2021/07/13 01:18:19;;;;;;;10.20;9.20;;;;;;;;;;3584185;40;20041;-64
2021/07/13 01:21:19;;;;;;;9.38;8.57;;;;;;;;;;3582720;40;20049;-64
2021/07/13 01:23:56;;;;;;;8.98;8.07;;;;;;;;;;3583071;40;20080;-64
2021/07/13 01:26:53;;;;;;;9.10;8.20;;;;;;;;;;3584634;40;20048;-64
2021/07/13 01:29:19;;;;;;;9.30;7.65;;;;;;;;;;3582373;40;20085;-64
2021/07/13 01:31:47;;;;;;;9.38;8.48;;;;;;;;;;3581496;40;20077;-63
2021/07/13 01:34:19;;;;;;;13.95;8.98;;;;;;;;;;3581128;40;20044;-63
2021/07/13 01:36:52;;;;;;;9.70;7.95;;;;;;;;;;3583912;40;20047;-63
2021/07/13 01:39:18;;;;;;;9.70;8.80;;;;;;;;;;3583811;40;20045;-63
2021/07/13 01:41:47;;;;;;;12.35;8.63;;;;;;;;;;3582230;40;20143;-63
2021/07/13 01:44:14;;;;;;;11.68;8.40;;;;;;;;;;3581561;40;20041;-63
2021/07/13 01:46:40;;;;;;;10.25;9.20;;;;;;;;;;3582995;40;20133;-63
2021/07/13 01:49:07;;;;;;;10.32;8.88;;;;;;;;;;3583806;40;20029;-65
2021/07/13 01:51:33;;;;;;;9.95;8.93;;;;;;;;;;3581404;40;20033;-64
2021/07/13 01:54:11;;;;;;;9.45;8.40;;;;;;;;;;3580256;40;20395;-64
2021/07/13 01:56:38;;;;;;;9.45;8.48;;;;;;;;;;3583456;40;20040;-64
2021/07/13 01:59:06;;;;;;;10.90;9.73;;;;;;;;;;3584365;40;20040;-64
2021/07/13 02:01:33;;;;;;;11.57;10.13;;;;;;;;;;3584415;40;20043;-64
2021/07/13 02:04:01;;;;;;;9.48;8.57;;;;;;;;;;3583438;40;20059;-64
2021/07/13 02:06:26;;;;;;;10.90;9.00;;;;;;;;;;3582930;40;20037;-64
2021/07/13 02:08:55;;;;;;;13.45;10.35;;;;;;;;;;3585138;40;20059;-64
2021/07/13 02:11:23;;;;;;;9.05;8.15;;;;;;;;;;3585603;40;20035;-64
2021/07/13 02:13:48;;;;;;;10.93;9.90;;;;;;;;;;3584507;40;20053;-64
2021/07/13 02:16:14;;;;;;;10.38;9.35;;;;;;;;;;3584089;40;20265;-64
2021/07/13 02:18:39;;;;;;;13.48;9.70;;;;;;;;;;3585553;40;20055;-64
2021/07/13 02:21:05;;;;;;;12.63;11.25;;;;;;;;;;3584096;40;20279;-65
2021/07/13 02:23:31;;;;;;;11.02;10.02;;;;;;;;;;3583700;40;20044;-63
2021/07/13 02:26:02;;;;;;;12.57;11.27;;;;;;;;;;3582054;40;20427;-63
2021/07/13 02:28:34;;;;;;;11.02;9.77;;;;;;;;;;3583154;40;20331;-63
2021/07/13 02:31:23;;;;;;;11.50;10.40;;;;;;;;;;3584428;40;20057;-63
2021/07/13 02:33:58;;;;;;;12.30;10.60;;;;;;;;;;3584684;40;20045;-63
2021/07/13 02:36:28;;;;;;;12.25;11.07;;;;;;;;;;3584337;40;20024;-63
2021/07/13 02:38:54;;;;;;;11.88;10.43;;;;;;;;;;3583233;40;20037;-63
2021/07/13 02:41:20;;;;;;;11.90;10.70;;;;;;;;;;3585309;40;20138;-63
2021/07/13 02:43:46;;;;;;;13.85;12.45;;;;;;;;;;3586240;40;20053;-63
2021/07/13 02:46:13;;;;;;;13.05;11.80;;;;;;;;;;3585538;40;20041;-63
2021/07/13 02:48:40;;;;;;;12.30;10.65;;;;;;;;;;3581383;40;20044;-63
2021/07/13 02:51:09;;;;;;;11.68;10.68;;;;;;;;;;3586066;40;20100;-63
2021/07/13 02:53:35;;;;;;;12.88;10.70;;;;;;;;;;3583594;40;20033;-63
2021/07/13 02:56:02;;;;;;;11.45;10.05;;;;;;;;;;3585017;40;20036;-63
2021/07/13 02:58:28;;;;;;;9.75;8.82;;;;;;;;;;3581155;40;20043;-63
2021/07/13 03:00:55;;;;;;;12.80;11.52;;;;;;;;;;3582367;40;20072;-63
2021/07/13 03:03:24;;;;;;;12.90;11.60;;;;;;;;;;3583839;40;20077;-65
2021/07/13 03:05:52;;;;;;;10.52;9.52;;;;;;;;;;3582811;40;20041;-63
2021/07/13 03:08:21;;;;;;;12.10;9.38;;;;;;;;;;3584299;40;20309;-63
2021/07/13 03:10:48;;;;;;;14.10;11.50;;;;;;;;;;3584534;40;20036;-63
2021/07/13 03:13:13;;;;;;;13.38;11.98;;;;;;;;;;3584233;40;20039;-63
2021/07/13 03:15:39;;;;;;;11.90;10.68;;;;;;;;;;3584997;40;20068;-64
2021/07/13 03:18:05;;;;;;;13.15;11.85;;;;;;;;;;3583865;40;20036;-64
2021/07/13 03:20:31;;;;;;;13.05;11.68;;;;;;;;;;3582823;40;20051;-63
2021/07/13 03:22:58;;;;;;;12.90;11.43;;;;;;;;;;3582316;40;20048;-64
2021/07/13 03:25:37;;;;;;;13.25;11.98;;;;;;;;;;3584741;40;20040;-63
2021/07/13 03:28:04;;;;;;;12.77;11.52;;;;;;;;;;3584608;40;20491;-63
2021/07/13 03:30:30;;;;;;;12.50;11.38;;;;;;;;;;3583012;40;20033;-63
2021/07/13 03:32:58;;;;;;;15.02;12.50;;;;;;;;;;3582117;40;20036;-63
2021/07/13 03:35:25;;;;;;;13.05;11.73;;;;;;;;;;3585159;40;20411;-63
2021/07/13 03:37:52;;;;;;;9.90;8.90;;;;;;;;;;3582991;40;20048;-63
2021/07/13 03:40:23;;;;;;;11.82;10.73;;;;;;;;;;3584482;40;20036;-63
2021/07/13 03:42:50;;;;;;;11.68;9.98;;;;;;;;;;3572954;40;20076;-63
2021/07/13 03:45:17;;;;;;;11.55;10.38;;;;;;;;;;3584019;40;20116;-63
2021/07/13 03:47:46;;;;;;;11.23;10.18;;;;;;;;;;3583124;40;20044;-63
2021/07/13 03:50:13;;;;;;;11.13;10.00;;;;;;;;;;3583439;40;20033;-63
2021/07/13 03:52:38;;;;;;;11.43;10.23;;;;;;;;;;3583809;40;20158;-64
2021/07/13 03:55:04;;;;;;;11.27;10.13;;;;;;;;;;3583793;40;20048;-63
2021/07/13 03:57:30;;;;;;;12.18;10.30;;;;;;;;;;3584290;40;20037;-63
2021/07/13 03:59:56;;;;;;;15.18;13.00;;;;;;;;;;3584940;40;20041;-63
2021/07/13 04:02:21;;;;;;;12.00;10.90;;;;;;;;;;3582674;40;20036;-63
2021/07/13 04:04:47;;;;;;;15.45;12.98;;;;;;;;;;3584246;40;20321;-63
2021/07/13 04:07:12;;;;;;;17.42;12.65;;;;;;;;;;3584529;40;20055;-64
2021/07/13 04:09:38;;;;;;;14.95;13.43;;;;;;;;;;3583740;40;20055;-63
2021/07/13 04:12:03;;;;;;;14.85;12.35;;;;;;;;;;3583537;40;20024;-63
2021/07/13 04:14:29;;;;;;;14.43;12.55;;;;;;;;;;3582445;40;20033;-63
2021/07/13 04:16:54;;;;;;;14.57;13.15;;;;;;;;;;3582868;40;20059;-63
2021/07/13 04:19:20;;;;;;;14.70;13.23;;;;;;;;;;3584146;40;20041;-63
2021/07/13 04:21:45;;;;;;;15.13;13.18;;;;;;;;;;3582554;40;20048;-63
2021/07/13 04:24:11;;;;;;;18.30;15.15;;;;;;;;;;3583201;40;20484;-63
2021/07/13 04:26:36;;;;;;;15.65;14.15;;;;;;;;;;3583919;40;20077;-63
2021/07/13 04:29:02;;;;;;;16.48;14.75;;;;;;;;;;3583810;40;20261;-63
2021/07/13 04:31:27;;;;;;;16.67;14.98;;;;;;;;;;3583249;40;20364;-63
2021/07/13 04:33:52;;;;;;;16.45;14.75;;;;;;;;;;3584049;40;20033;-63
2021/07/13 04:36:18;;;;;;;15.13;13.63;;;;;;;;;;3582387;40;20024;-63
2021/07/13 04:38:43;;;;;;;16.40;14.75;;;;;;;;;;3576402;40;20040;-63
2021/07/13 04:41:09;;;;;;;15.25;13.75;;;;;;;;;;3582964;40;20352;-63
2021/07/13 04:43:34;;;;;;;15.18;13.77;;;;;;;;;;3583263;40;20114;-63
2021/07/13 04:46:00;;;;;;;14.95;12.95;;;;;;;;;;3582961;40;20032;-63
2021/07/13 04:48:25;;;;;;;15.85;14.35;;;;;;;;;;3583049;40;20037;-63
2021/07/13 04:50:51;;;;;;;17.30;15.57;;;;;;;;;;3581671;40;20044;-62
2021/07/13 04:53:16;;;;;;;18.00;15.75;;;;;;;;;;3581708;40;20041;-63
2021/07/13 04:55:42;;;;;;;18.55;16.20;;;;;;;;;;3584487;40;20040;-63
2021/07/13 04:58:07;;;;;;;17.75;15.30;;;;;;;;;;3583551;40;20028;-63
2021/07/13 05:00:32;;;;;;;16.90;15.00;;;;;;;;;;3582810;40;20068;-63
2021/07/13 05:02:58;;;;;;;17.55;15.73;;;;;;;;;;3583368;40;20044;-62
2021/07/13 05:05:23;;;;;;;16.02;14.35;;;;;;;;;;3581482;40;20367;-63
2021/07/13 05:07:50;;;;;;;18.25;14.75;;;;;;;;;;3583727;40;20029;-63
2021/07/13 05:10:17;;;;;;;15.90;13.98;;;;;;;;;;3576456;40;20033;-62
2021/07/13 05:12:43;;;;;;;15.48;13.93;;;;;;;;;;3575918;40;20087;-62
2021/07/13 05:15:11;;;;;;;14.70;13.30;;;;;;;;;;3584217;40;20039;-62
2021/07/13 05:17:38;;;;;;;15.52;14.13;;;;;;;;;;3582622;40;20041;-62
2021/07/13 05:20:09;;;;;;;15.27;13.68;;;;;;;;;;3581408;40;20038;-62
2021/07/13 05:22:34;;;;;;;15.95;14.43;;;;;;;;;;3579351;40;20036;-62
2021/07/13 05:25:02;;;;;;;15.02;13.52;;;;;;;;;;3581316;40;20134;-64
2021/07/13 05:27:27;;;;;;;14.38;13.18;;;;;;;;;;3584425;40;20521;-63
2021/07/13 05:29:53;;;;;;;15.40;13.90;;;;;;;;;;3583411;40;20093;-63
2021/07/13 05:32:18;;;;;;;15.18;13.80;;;;;;;;;;3582580;40;20355;-63
2021/07/13 05:34:44;;;;;;;14.18;12.80;;;;;;;;;;3583239;40;20387;-63
2021/07/13 05:37:10;;;;;;;17.38;12.85;;;;;;;;;;3584169;40;20502;-63
2021/07/13 05:39:36;;;;;;;14.75;12.98;;;;;;;;;;3583237;40;20025;-63
2021/07/13 05:42:02;;;;;;;13.73;12.52;;;;;;;;;;3581004;40;20416;-63
2021/07/13 05:44:27;;;;;;;15.20;13.90;;;;;;;;;;3582681;40;20044;-63
2021/07/13 05:46:53;;;;;;;14.52;13.13;;;;;;;;;;3583580;40;20371;-63
2021/07/13 05:49:18;;;;;;;15.35;14.02;;;;;;;;;;3584225;40;20040;-63
2021/07/13 05:51:44;;;;;;;14.48;13.18;;;;;;;;;;3582783;40;20029;-63
2021/07/13 05:54:10;;;;;;;15.00;13.70;;;;;;;;;;3583294;40;20044;-63
2021/07/13 05:56:35;;;;;;;13.95;12.63;;;;;;;;;;3581840;40;20037;-63
2021/07/13 05:59:01;;;;;;;14.00;12.75;;;;;;;;;;3581283;40;20033;-63
2021/07/13 06:01:27;;;;;;;16.33;14.82;;;;;;;;;;3583897;40;20045;-63
2021/07/13 06:03:53;;;;;;;14.23;13.00;;;;;;;;;;3583906;40;20044;-63
2021/07/13 06:06:19;;;;;;;14.75;13.38;;;;;;;;;;3583596;40;20032;-63
2021/07/13 06:08:44;;;;;;;14.65;13.25;;;;;;;;;;3583985;40;20056;-63
2021/07/13 06:11:10;;;;;;;16.63;15.10;;;;;;;;;;3583586;40;20052;-63
2021/07/13 06:13:35;;;;;;;15.13;13.73;;;;;;;;;;3583108;40;20134;-63
2021/07/13 06:16:00;;;;;;;14.50;13.20;;;;;;;;;;3579089;40;20049;-63
2021/07/13 06:18:26;;;;;;;14.70;12.95;;;;;;;;;;3580174;40;20060;-63
2021/07/13 06:20:51;;;;;;;16.27;14.73;;;;;;;;;;3575448;40;20043;-63
2021/07/13 06:23:17;;;;;;;17.65;15.95;;;;;;;;;;3581865;40;20051;-63
2021/07/13 06:25:43;;;;;;;18.52;16.88;;;;;;;;;;3580068;40;20036;-63
2021/07/13 06:28:09;;;;;;;18.65;16.88;;;;;;;;;;3578673;40;20063;-62
2021/07/13 06:30:35;;;;;;;17.10;15.50;;;;;;;;;;3582958;40;20040;-62
2021/07/13 06:33:01;;;;;;;16.98;15.52;;;;;;;;;;3583105;40;20616;-62
2021/07/13 06:35:27;;;;;;;19.10;17.20;;;;;;;;;;3581543;40;20043;-62
2021/07/13 06:37:53;;;;;;;18.30;16.60;;;;;;;;;;3578853;40;20353;-62
2021/07/13 06:40:18;;;;;;;18.77;17.02;;;;;;;;;;3579546;40;20052;-62
2021/07/13 06:42:44;;;;;;;19.38;16.88;;;;;;;;;;3582491;40;20056;-62
2021/07/13 06:45:10;;;;;;;19.00;17.10;;;;;;;;;;3582853;40;20145;-64
2021/07/13 06:47:35;;;;;;;21.00;18.92;;;;;;;;;;3582885;40;20047;-62
2021/07/13 06:50:02;;;;;;;19.60;17.73;;;;;;;;;;3580830;40;20041;-62
2021/07/13 06:52:27;;;;;;;16.52;14.77;;;;;;;;;;3581091;40;20405;-62
2021/07/13 06:54:53;;;;;;;19.27;17.33;;;;;;;;;;3582625;40;20037;-62
2021/07/13 06:57:18;;;;;;;19.08;17.30;;;;;;;;;;3583096;40;20044;-62
2021/07/13 06:59:44;;;;;;;20.70;18.52;;;;;;;;;;3583605;40;20060;-62
2021/07/13 07:02:09;;;;;;;19.42;17.38;;;;;;;;;;3582741;40;20063;-62
2021/07/13 07:04:36;;;;;;;21.55;19.55;;;;;;;;;;3580859;40;20045;-62
2021/07/13 07:07:01;;;;;;;19.60;17.80;;;;;;;;;;3582424;40;20041;-62
2021/07/13 07:09:27;;;;;;;21.98;18.30;;;;;;;;;;3580734;40;20041;-62
2021/07/13 07:11:53;;;;;;;19.30;17.55;;;;;;;;;;3580802;40;20035;-62
2021/07/13 07:14:18;;;;;;;20.27;18.48;;;;;;;;;;3576564;40;20037;-62
2021/07/13 07:16:44;;;;;;;19.95;18.35;;;;;;;;;;3576551;40;20039;-62
2021/07/13 07:19:09;;;;;;;19.38;17.48;;;;;;;;;;3581291;40;20072;-62
2021/07/13 07:21:35;;;;;;;16.75;15.25;;;;;;;;;;3580795;40;20088;-62
2021/07/13 07:24:00;;;;;;;17.05;13.80;;;;;;;;;;3581070;40;20051;-62
2021/07/13 07:26:25;;;;;;;17.33;15.82;;;;;;;;;;3580317;40;20064;-62
2021/07/13 07:28:51;;;;;;;17.80;16.00;;;;;;;;;;3583941;40;20048;-62
2021/07/13 07:31:18;;;;;;;14.93;13.27;;;;;;;;;;3582287;40;20056;-62
2021/07/13 07:33:44;;;;;;;14.15;12.75;;;;;;;;;;3581671;40;20032;-62
2021/07/13 07:36:09;;;;;;;15.70;13.80;;;;;;;;;;3582985;40;20142;-62
2021/07/13 07:38:35;;;;;;;15.20;13.70;;;;;;;;;;3574515;40;20044;-62
2021/07/13 07:41:00;;;;;;;13.00;11.80;;;;;;;;;;3581613;40;20045;-62
2021/07/13 07:43:26;;;;;;;10.45;9.40;;;;;;;;;;3581912;40;20040;-62
2021/07/13 07:45:51;;;;;;;9.25;8.40;;;;;;;;;;3580759;40;20399;-62
2021/07/13 07:48:17;;;;;;;11.13;10.13;;;;;;;;;;3583794;40;20493;-62
2021/07/13 07:50:42;;;;;;;9.20;8.38;;;;;;;;;;3583211;40;20048;-62
2021/07/13 07:53:07;;;;;;;8.82;8.02;;;;;;;;;;3584202;40;20033;-62
2021/07/13 07:55:33;;;;;;;9.40;8.50;;;;;;;;;;3583668;40;20028;-62
2021/07/13 07:57:59;;;;;;;12.10;8.88;;;;;;;;;;3582632;40;20039;-62
2021/07/13 08:00:25;;;;;;;7.68;5.88;;;;;;;;;;3574850;40;20047;-63
2021/07/13 08:02:51;;;;;;;13.88;7.10;;;;;;;;;;3580192;40;20045;-62
2021/07/13 08:05:17;;;;;;;9.15;7.30;;;;;;;;;;3582991;40;20383;-63
2021/07/13 08:07:44;;;;;;;9.65;8.75;;;;;;;;;;3580145;40;20379;-62
2021/07/13 08:10:11;;;;;;;10.35;8.07;;;;;;;;;;3581008;40;20094;-62
2021/07/13 08:12:37;;;;;;;8.77;7.35;;;;;;;;;;3582448;40;20059;-62
2021/07/13 08:15:05;;;;;;;9.65;8.75;;;;;;;;;;3580819;40;20284;-62
2021/07/13 08:17:30;;;;;;;8.07;6.22;;;;;;;;;;3581421;40;20129;-63
2021/07/13 08:19:56;;;;;;;8.93;8.10;;;;;;;;;;3580520;40;20044;-62
2021/07/13 08:22:21;;;;;;;10.05;9.05;;;;;;;;;;3582171;40;20036;-62
2021/07/13 08:24:47;;;;;;;9.15;6.10;;;;;;;;;;3581478;40;20072;-63
2021/07/13 08:27:13;;;;;;;10.20;7.28;;;;;;;;;;3581900;40;20035;-63
2021/07/13 08:29:38;;;;;;;8.98;6.85;;;;;;;;;;3581717;40;20033;-63
2021/07/13 08:32:05;;;;;;;7.20;6.50;;;;;;;;;;3582337;40;20387;-63
2021/07/13 08:34:33;;;;;;;5.82;5.05;;;;;;;;;;3580419;40;20037;-62
2021/07/13 08:36:58;;;;;;;6.15;5.35;;;;;;;;;;3582146;40;20032;-63
2021/07/13 08:39:24;;;;;;;6.45;5.85;;;;;;;;;;3578542;40;20060;-63
2021/07/13 08:41:50;;;;;;;6.53;5.75;;;;;;;;;;3579736;40;20141;-63
2021/07/13 08:44:16;;;;;;;8.55;4.75;;;;;;;;;;3581429;40;20082;-63
2021/07/13 08:46:42;;;;;;;7.18;6.03;;;;;;;;;;3582098;40;20490;-63
2021/07/13 08:49:09;;;;;;;8.27;5.95;;;;;;;;;;3581070;40;20049;-63
2021/07/13 08:51:36;;;;;;;8.18;7.45;;;;;;;;;;3580423;40;20045;-63
2021/07/13 08:54:02;;;;;;;8.02;7.22;;;;;;;;;;3582048;40;20075;-63
2021/07/13 08:56:29;;;;;;;8.05;7.15;;;;;;;;;;3581267;40;20029;-63
2021/07/13 08:58:54;;;;;;;8.60;7.90;;;;;;;;;;3581189;40;20044;-63
2021/07/13 09:01:20;;;;;;;8.63;7.85;;;;;;;;;;3581220;40;20425;-63
2021/07/13 09:04:11;;;;;;;8.57;7.40;;;;;;;;;;3580855;40;20045;-63
2021/07/13 09:06:54;;;;;;;7.15;6.45;;;;;;;;;;3579297;40;20036;-63
2021/07/13 09:09:34;;;;;;;7.97;7.28;;;;;;;;;;3579984;40;20110;-63
2021/07/13 09:12:07;;;;;;;9.05;6.80;;;;;;;;;;3579791;40;20380;-63
2021/07/13 09:14:46;;;;;;;6.80;6.15;;;;;;;;;;3581858;40;20048;-63
2021/07/13 09:17:37;;;;;;;12.32;9.57;;;;;;;;;;3580171;40;20051;-63
2021/07/13 09:20:07;;;;;;;9.63;7.90;;;;;;;;;;3582748;40;20059;-63
2021/07/13 09:22:37;;;;;;;7.43;6.25;;;;;;;;;;3583527;40;20025;-63
2021/07/13 09:25:23;;;;;;;9.30;8.40;;;;;;;;;;3582517;40;20051;-63
2021/07/13 09:28:04;;;;;;;11.18;9.15;;;;;;;;;;3581229;40;20037;-63
2021/07/13 09:30:30;;;;;;;9.75;8.98;;;;;;;;;;3581997;40;20033;-63
2021/07/13 09:33:11;;;;;;;10.25;9.25;;;;;;;;;;3582488;40;20642;-63
2021/07/13 09:35:37;;;;;;;9.77;8.80;;;;;;;;;;3580305;40;20052;-61
2021/07/13 09:38:02;;;;;;;10.68;9.82;;;;;;;;;;3582639;40;20056;-63
2021/07/13 09:40:35;;;;;;;10.88;9.65;;;;;;;;;;3582594;40;20056;-63
2021/07/13 09:43:00;;;;;;;9.98;9.02;;;;;;;;;;3583846;40;20267;-63
2021/07/13 09:45:32;;;;;;;11.35;9.15;;;;;;;;;;3581461;40;20035;-63
2021/07/13 09:48:09;;;;;;;10.27;9.02;;;;;;;;;;3583564;40;20048;-63
2021/07/13 09:50:41;;;;;;;11.30;9.20;;;;;;;;;;3583957;40;20150;-63
2021/07/13 09:53:09;;;;;;;10.30;9.40;;;;;;;;;;3582705;40;20932;-63
2021/07/13 09:55:35;;;;;;;11.20;10.30;;;;;;;;;;3582048;40;20039;-63
2021/07/13 09:58:27;;;;;;;15.75;11.35;;;;;;;;;;3579948;40;20041;-63
2021/07/13 10:00:57;;;;;;;11.27;10.18;;;;;;;;;;3578283;40;20048;-63
2021/07/13 10:03:24;;;;;;;12.85;10.38;;;;;;;;;;3580216;40;20111;-63
2021/07/13 10:05:54;;;;;;;10.85;9.98;;;;;;;;;;3581622;40;20029;-63
2021/07/13 10:08:22;;;;;;;9.73;8.83;;;;;;;;;;3580789;40;20045;-63
2021/07/13 10:10:48;;;;;;;11.57;10.57;;;;;;;;;;3580283;40;20283;-63
2021/07/13 10:13:15;;;;;;;11.63;10.60;;;;;;;;;;3580018;40;20041;-63
2021/07/13 10:15:42;;;;;;;10.02;9.13;;;;;;;;;;3581163;40;20066;-63
2021/07/13 10:18:08;;;;;;;10.98;9.90;;;;;;;;;;3579808;40;20048;-63
2021/07/13 10:20:36;;;;;;;10.82;9.82;;;;;;;;;;3582787;40;20171;-63
2021/07/13 10:23:05;;;;;;;11.48;10.20;;;;;;;;;;3582794;40;20052;-63
2021/07/13 10:25:41;;;;;;;10.32;8.95;;;;;;;;;;3583923;40;20055;-63
2021/07/13 10:28:07;;;;;;;10.35;9.40;;;;;;;;;;3585317;40;20339;-63
2021/07/13 10:30:34;;;;;;;10.75;9.75;;;;;;;;;;3586825;40;20046;-63
2021/07/13 10:32:59;;;;;;;11.90;10.77;;;;;;;;;;3581970;40;20037;-63
2021/07/13 10:35:29;;;;;;;11.85;10.80;;;;;;;;;;3582583;40;20065;-63
2021/07/13 10:37:57;;;;;;;10.60;9.63;;;;;;;;;;3582774;40;20056;-63
2021/07/13 10:40:25;;;;;;;9.38;8.50;;;;;;;;;;3581742;40;20553;-63
2021/07/13 10:42:54;;;;;;;10.57;9.48;;;;;;;;;;3582084;40;20039;-63
2021/07/13 10:45:24;;;;;;;10.63;9.32;;;;;;;;;;3584084;40;20087;-63
2021/07/13 10:48:00;;;;;;;9.50;8.57;;;;;;;;;;3582032;40;20052;-63
2021/07/13 10:50:26;;;;;;;8.48;7.30;;;;;;;;;;3582279;40;20275;-63
2021/07/13 10:53:04;;;;;;;10.70;7.70;;;;;;;;;;3582508;40;20041;-63
2021/07/13 10:55:29;;;;;;;10.43;8.35;;;;;;;;;;3583446;40;20153;-63
2021/07/13 10:58:10;;;;;;;11.52;8.93;;;;;;;;;;3584396;40;20604;-63
2021/07/13 11:00:51;;;;;;;9.18;8.30;;;;;;;;;;3582619;40;20098;-63
2021/07/13 11:03:31;;;;;;;9.48;8.57;;;;;;;;;;3585096;40;20041;-63
2021/07/13 11:06:07;;;;;;;;;;;;;;;;;;3583271;40;20037;-63
2021/07/13 11:08:42;;;;;;;7.15;5.60;;;;;;;;;;3582555;40;19928;-63
2021/07/13 11:11:09;;;;;;;10.82;7.78;;;;;;;;;;3581781;40;20037;-63
2021/07/13 11:13:35;;;;;;;7.63;6.38;;;;;;;;;;3581361;40;20048;-63
2021/07/13 11:16:02;;;;;;;10.65;8.55;;;;;;;;;;3581603;40;20037;-63
2021/07/13 11:18:32;;;;;;;10.10;9.10;;;;;;;;;;3580559;40;20045;-63
2021/07/13 11:21:15;;;;;;;9.80;8.88;;;;;;;;;;3581295;40;20044;-63
2021/07/13 11:23:41;;;;;;;9.75;8.80;;;;;;;;;;3579944;40;20040;-63
2021/07/13 11:26:08;;;;;;;8.10;7.40;;;;;;;;;;3580181;40;20375;-63
2021/07/13 11:28:35;;;;;;;6.97;4.75;;;;;;;;;;3581554;40;20037;-62
2021/07/13 11:31:02;;;;;;;6.50;5.90;;;;;;;;;;3581209;40;20357;-62
2021/07/13 11:33:28;;;;;;;15.23;5.38;;;;;;;;;;3581336;40;20105;-62
2021/07/13 11:35:55;;;;;;;8.55;5.18;;;;;;;;;;3579252;40;20048;-62
2021/07/13 11:38:32;;;;;;;9.48;5.22;;;;;;;;;;3582089;40;20645;-62
2021/07/13 11:41:12;;;;;;;7.95;5.20;;;;;;;;;;3582357;40;20065;-62
2021/07/13 11:43:39;;;;;;;5.00;4.45;;;;;;;;;;3571953;40;20317;-62
2021/07/13 11:46:22;;;;;;;9.82;6.20;;;;;;;;;;3580230;40;20048;-61
2021/07/13 11:49:07;;;;;;;9.50;4.63;;;;;;;;;;3580572;40;20052;-62
2021/07/13 11:51:36;;;;;;;6.85;4.93;;;;;;;;;;3581664;40;20059;-62
2021/07/13 11:54:08;;;;;;;5.30;4.72;;;;;;;;;;3583233;40;20067;-62
2021/07/13 11:56:36;;;;;;;5.45;4.28;;;;;;;;;;3581878;40;20125;-62
2021/07/13 11:59:03;;;;;;;6.32;4.38;;;;;;;;;;3583190;40;20049;-61
2021/07/13 12:01:30;;;;;;;6.97;5.47;;;;;;;;;;3582008;40;20072;-62
2021/07/13 12:04:02;;;;;;;5.78;4.82;;;;;;;;;;3582884;40;20048;-61
2021/07/13 12:06:27;;;;;;;6.57;5.85;;;;;;;;;;3580147;40;20043;-62
2021/07/13 12:08:54;;;;;;;6.25;5.28;;;;;;;;;;3579956;40;20045;-61
2021/07/13 12:11:28;;;;;;;5.55;4.95;;;;;;;;;;3582959;40;20036;-61
2021/07/13 12:13:56;;;;;;;6.28;4.80;;;;;;;;;;3581399;40;20033;-61
2021/07/13 12:16:25;;;;;;;7.00;5.40;;;;;;;;;;3579741;40;20052;-61
2021/07/13 12:18:52;;;;;;;6.60;5.07;;;;;;;;;;3580472;40;20052;-62
2021/07/13 12:21:18;;;;;;;6.68;4.75;;;;;;;;;;3581420;40;20043;-62
2021/07/13 12:23:45;;;;;;;5.43;4.78;;;;;;;;;;3582090;40;20029;-62
2021/07/13 12:26:25;;;;;;;7.60;5.00;;;;;;;;;;3582376;40;20056;-62
2021/07/13 12:29:02;;;;;;;6.35;4.70;;;;;;;;;;3581597;40;20041;-61
2021/07/13 12:31:27;;;;;;;4.22;2.08;;;;;;;;;;3580715;40;20057;-61
2021/07/13 12:33:53;;;;;;;1.98;1.20;;;;;;;;;;3582224;40;20044;-61
2021/07/13 12:36:27;;;;;;;1.45;0.70;;;;;;;;;;3582204;40;20390;-60
2021/07/13 12:38:53;;;;;;;3.28;1.10;;;;;;;;;;3580920;40;20045;-60
2021/07/13 12:41:19;;;;;;;1.10;0.75;;;;;;;;;;3578573;40;20492;-60
2021/07/13 12:43:45;;;;;;;1.17;0.60;;;;;;;;;;3580156;40;20104;-60
2021/07/13 12:46:27;;;;;;;1.20;0.50;;;;;;;;;;3582321;40;20039;-61
2021/07/13 12:48:53;;;;;;;1.58;0.73;;;;;;;;;;3581560;40;20043;-60
2021/07/13 12:51:26;;;;;;;4.65;0.80;;;;;;;;;;3581725;40;20052;-62
2021/07/13 12:54:08;;;;;;;0.80;0.52;;;;;;;;;;3580707;40;20036;-61
2021/07/13 12:56:35;;;;;;;2.97;1.73;;;;;;;;;;3581104;40;20501;-61
2021/07/13 12:59:05;;;;;;;4.20;1.05;;;;;;;;;;3581125;40;20050;-61
2021/07/13 13:01:31;;;;;;;3.30;1.15;;;;;;;;;;3581898;40;20080;-61
2021/07/13 13:04:17;;;;;;;1.55;0.88;;;;;;;;;;3581355;40;20067;-61
2021/07/13 13:06:44;;;;;;;1.45;0.73;;;;;;;;;;3581384;40;20044;-61
2021/07/13 13:09:12;;;;;;;2.13;1.00;;;;;;;;;;3582564;40;20036;-63
2021/07/13 13:11:41;;;;;;;1.58;0.90;;;;;;;;;;3581225;40;20100;-64
2021/07/13 13:14:13;;;;;;;4.07;1.08;;;;;;;;;;3580484;40;20052;-64
2021/07/13 13:16:41;;;;;;;2.08;1.13;;;;;;;;;;3581315;40;20049;-63
2021/07/13 13:19:08;;;;;;;2.05;1.13;;;;;;;;;;3580961;40;20048;-63
2021/07/13 13:21:36;;;;;;;1.23;0.77;;;;;;;;;;3582230;40;20066;-63
2021/07/13 13:24:03;;;;;;;1.73;1.00;;;;;;;;;;3582221;40;20041;-63
2021/07/13 13:26:30;;;;;;;1.55;0.98;;;;;;;;;;3583676;40;20036;-64
2021/07/13 13:28:56;;;;;;;2.20;1.20;;;;;;;;;;3582503;40;20033;-63
2021/07/13 13:31:22;;;;;;;2.47;1.27;;;;;;;;;;3582883;40;20028;-62
2021/07/13 13:33:54;;;;;;;1.65;1.05;;;;;;;;;;3583324;40;20037;-62
2021/07/13 13:36:28;;;;;;;2.03;1.05;;;;;;;;;;3584211;40;20121;-63
2021/07/13 13:41:39;;;;;;;2.60;1.63;;;;;;;;;;3580335;40;20126;-62
2021/07/13 13:44:04;;;;;;;2.60;1.15;;;;;;;;;;3582911;40;20088;-62
2021/07/13 13:46:30;;;;;;;1.67;1.10;;;;;;;;;;3579136;40;20485;-63
2021/07/13 13:48:55;;;;;;;3.33;1.48;;;;;;;;;;3583564;40;20147;-64
2021/07/13 13:51:21;;;;;;;2.90;1.10;;;;;;;;;;3584365;40;20037;-65
2021/07/13 13:53:47;;;;;;;2.08;1.10;;;;;;;;;;3584583;40;20041;-65
2021/07/13 13:56:15;;;;;;;4.65;1.27;;;;;;;;;;3584238;40;20039;-64
2021/07/13 13:58:41;;;;;;;2.65;1.10;;;;;;;;;;3585753;40;20051;-64
2021/07/13 14:01:09;;;;;;;3.22;1.25;;;;;;;;;;3583708;40;20032;-64
2021/07/13 14:03:35;;;;;;;2.42;1.30;;;;;;;;;;3584984;40;20260;-65
2021/07/13 14:06:01;;;;;;;2.83;1.15;;;;;;;;;;3583583;40;20148;-63
2021/07/13 14:08:26;;;;;;;3.30;1.30;;;;;;;;;;3582534;40;20032;-62
2021/07/13 14:10:51;;;;;;;1.83;1.15;;;;;;;;;;3584651;40;20108;-62
2021/07/13 14:13:17;;;;;;;2.75;0.98;;;;;;;;;;3583678;40;20506;-62
2021/07/13 14:15:43;;;;;;;1.55;0.93;;;;;;;;;;3585595;40;20087;-62
2021/07/13 14:18:08;;;;;;;1.88;1.20;;;;;;;;;;3583579;40;20056;-62
2021/07/13 14:20:34;;;;;;;1.85;1.08;;;;;;;;;;3584172;40;20568;-62
2021/07/13 14:22:59;;;;;;;5.90;4.43;;;;;;;;;;3583697;40;20448;-62
2021/07/13 14:25:25;;;;;;;1.88;1.15;;;;;;;;;;3583673;40;20048;-62
2021/07/13 14:27:50;;;;;;;2.08;0.98;;;;;;;;;;3583747;40;20153;-64
2021/07/13 14:30:16;;;;;;;1.58;1.00;;;;;;;;;;3584436;40;20043;-62
2021/07/13 14:32:43;;;;;;;1.70;1.15;;;;;;;;;;3584362;40;20052;-62
2021/07/13 14:35:10;;;;;;;1.75;0.90;;;;;;;;;;3585659;40;20047;-62
2021/07/13 14:37:36;;;;;;;1.23;0.82;;;;;;;;;;3584648;40;20037;-63
2021/07/13 14:40:03;;;;;;;1.60;0.90;;;;;;;;;;3583720;40;20158;-62